createdAt,value
2022-12-01T00:01:07.921Z,14.10
2022-12-01T00:03:34.816Z,14.00
2022-12-01T00:06:03.399Z,14.03
2022-12-01T00:08:31.023Z,14.60
2022-12-01T00:11:04.823Z,14.03
2022-12-01T00:13:31.741Z,13.17
2022-12-01T00:15:58.118Z,13.53
2022-12-01T00:18:24.580Z,14.00
2022-12-01T00:20:55.895Z,13.83
2022-12-01T00:23:23.167Z,13.40
2022-12-01T00:25:49.611Z,13.90
2022-12-01T00:28:15.960Z,12.30
2022-12-01T00:30:42.394Z,13.40
2022-12-01T00:33:08.719Z,12.87
2022-12-01T00:35:35.165Z,13.50
2022-12-01T00:38:01.533Z,14.27
2022-12-01T00:40:27.874Z,14.20
2022-12-01T00:42:54.195Z,15.60
2022-12-01T00:45:20.532Z,15.47
2022-12-01T00:47:46.871Z,13.77
2022-12-01T00:50:13.255Z,14.47
2022-12-01T00:52:39.679Z,15.13
2022-12-01T00:55:06.413Z,14.80
2022-12-01T00:57:32.822Z,16.70
2022-12-01T00:59:59.362Z,15.60
2022-12-01T01:02:28.300Z,14.40
2022-12-01T01:04:54.748Z,15.87
2022-12-01T01:07:21.800Z,15.53
2022-12-01T01:09:48.477Z,14.47
2022-12-01T01:12:14.947Z,14.87
2022-12-01T01:14:41.501Z,16.13
2022-12-01T01:17:07.897Z,16.03
2022-12-01T01:19:34.295Z,16.20
2022-12-01T01:22:00.618Z,16.37
2022-12-01T01:24:27.022Z,16.37
2022-12-01T01:26:55.353Z,16.47
2022-12-01T01:29:21.694Z,16.93
2022-12-01T01:31:48.203Z,17.47
2022-12-01T01:34:14.628Z,17.40
2022-12-01T01:36:40.972Z,17.60
2022-12-01T01:39:07.358Z,17.30
2022-12-01T01:41:33.690Z,18.07
2022-12-01T01:44:04.203Z,16.60
2022-12-01T01:46:32.835Z,16.80
2022-12-01T01:49:02.798Z,17.13
2022-12-01T01:51:41.320Z,16.40
2022-12-01T01:54:47.659Z,16.03
2022-12-01T01:57:17.297Z,17.80
2022-12-01T01:59:50.188Z,17.17
2022-12-01T02:02:17.419Z,16.63
2022-12-01T02:04:49.797Z,16.90
2022-12-01T02:07:18.604Z,18.07
2022-12-01T02:09:45.470Z,18.10
2022-12-01T02:12:38.422Z,17.13
2022-12-01T02:15:23.198Z,17.63
2022-12-01T02:18:13.594Z,17.30
2022-12-01T02:21:06.792Z,18.07
2022-12-01T02:23:45.384Z,19.17
2022-12-01T02:26:40.613Z,17.77
2022-12-01T02:29:35.454Z,17.67
2022-12-01T02:32:24.878Z,18.87
2022-12-01T02:35:03.233Z,16.20
2022-12-01T02:37:39.862Z,18.60
2022-12-01T02:40:24.703Z,18.90
2022-12-01T02:43:07.623Z,18.70
2022-12-01T02:45:40.053Z,17.43
2022-12-01T02:48:14.138Z,17.80
2022-12-01T02:50:41.583Z,19.47
2022-12-01T02:53:11.140Z,17.70
2022-12-01T02:55:46.493Z,19.73
2022-12-01T02:58:14.745Z,19.87
2022-12-01T03:00:48.919Z,18.97
2022-12-01T03:03:40.316Z,19.40
2022-12-01T03:06:10.578Z,18.73
2022-12-01T03:09:09.556Z,19.43
2022-12-01T03:11:46.616Z,19.07
2022-12-01T03:14:26.404Z,18.20
2022-12-01T03:16:54.460Z,19.30
2022-12-01T03:19:29.451Z,20.50
2022-12-01T03:22:00.223Z,19.00
2022-12-01T03:24:29.337Z,19.10
2022-12-01T03:26:58.699Z,18.07
2022-12-01T03:29:30.791Z,20.90
2022-12-01T03:32:03.088Z,18.97
2022-12-01T03:34:40.742Z,19.10
2022-12-01T03:37:21.691Z,19.40
2022-12-01T03:39:50.627Z,19.03
2022-12-01T03:42:23.649Z,20.43
2022-12-01T03:44:55.396Z,18.27
2022-12-01T03:47:25.658Z,19.67
2022-12-01T03:49:53.793Z,19.23
2022-12-01T03:52:42.145Z,19.30
2022-12-01T03:55:13.902Z,19.40
2022-12-01T03:57:53.990Z,19.57
2022-12-01T04:00:21.209Z,19.80
2022-12-01T04:02:48.806Z,19.67
2022-12-01T04:05:15.251Z,19.00
2022-12-01T04:07:41.695Z,18.70
2022-12-01T04:10:08.522Z,20.87
2022-12-01T04:12:34.961Z,19.53
2022-12-01T04:15:11.045Z,18.93
2022-12-01T04:17:37.711Z,19.20
2022-12-01T04:20:06.460Z,20.30
2022-12-01T04:22:33.836Z,19.43
2022-12-01T04:25:00.418Z,18.97
2022-12-01T04:27:26.742Z,18.03
2022-12-01T04:29:53.299Z,19.60
2022-12-01T04:32:19.748Z,18.47
2022-12-01T04:34:46.114Z,20.57
2022-12-01T04:37:13.031Z,20.70
2022-12-01T04:39:39.499Z,20.70
2022-12-01T04:42:05.972Z,18.90
2022-12-01T04:44:34.972Z,19.87
2022-12-01T04:47:02.667Z,20.07
2022-12-01T04:49:29.328Z,19.13
2022-12-01T04:51:55.742Z,19.23
2022-12-01T04:54:22.244Z,18.93
2022-12-01T04:56:48.792Z,19.80
2022-12-01T04:59:15.155Z,19.93
2022-12-01T05:01:41.645Z,18.83
2022-12-01T05:04:11.179Z,18.80
2022-12-01T05:06:38.078Z,17.93
2022-12-01T05:09:05.035Z,17.57
2022-12-01T05:11:32.545Z,18.20
2022-12-01T05:13:59.369Z,18.40
2022-12-01T05:16:34.303Z,17.53
2022-12-01T05:19:22.997Z,19.50
2022-12-01T05:21:50.632Z,17.90
2022-12-01T05:24:18.555Z,18.23
2022-12-01T05:26:45.442Z,18.20
2022-12-01T05:29:12.662Z,19.00
2022-12-01T05:31:39.692Z,18.87
2022-12-01T05:34:07.071Z,18.60
2022-12-01T05:36:33.531Z,17.10
2022-12-01T05:38:59.937Z,17.57
2022-12-01T05:41:26.302Z,17.10
2022-12-01T05:43:52.711Z,17.83
2022-12-01T05:46:19.203Z,18.00
2022-12-01T05:48:45.806Z,17.57
2022-12-01T05:51:14.450Z,18.13
2022-12-01T05:53:40.869Z,19.27
2022-12-01T05:56:08.252Z,18.60
2022-12-01T05:58:35.678Z,20.03
2022-12-01T06:01:02.305Z,17.43
2022-12-01T06:03:28.623Z,19.97
2022-12-01T06:05:54.985Z,18.60
2022-12-01T06:08:21.322Z,20.00
2022-12-01T06:10:47.757Z,19.17
2022-12-01T06:13:14.346Z,19.67
2022-12-01T06:15:40.685Z,19.17
2022-12-01T06:18:07.749Z,20.47
2022-12-01T06:20:34.082Z,18.03
2022-12-01T06:23:00.503Z,19.03
2022-12-01T06:25:26.841Z,18.87
2022-12-01T06:27:57.547Z,20.53
2022-12-01T06:30:24.281Z,19.57
2022-12-01T06:32:50.674Z,18.73
2022-12-01T06:35:17.216Z,19.73
2022-12-01T06:37:43.534Z,18.37
2022-12-01T06:40:10.630Z,19.70
2022-12-01T06:42:36.980Z,19.73
2022-12-01T06:45:03.469Z,18.83
2022-12-01T06:47:29.829Z,18.90
2022-12-01T06:49:56.164Z,20.60
2022-12-01T06:52:22.494Z,20.33
2022-12-01T06:54:49.141Z,18.60
2022-12-01T06:57:15.777Z,20.20
2022-12-01T06:59:42.499Z,20.40
2022-12-01T07:02:11.409Z,20.87
2022-12-01T07:04:37.810Z,20.20
2022-12-01T07:07:05.839Z,20.20
2022-12-01T07:09:32.185Z,20.50
2022-12-01T07:11:58.508Z,19.80
2022-12-01T07:14:26.672Z,20.80
2022-12-01T07:16:53.498Z,19.67
2022-12-01T07:19:20.226Z,19.80
2022-12-01T07:21:47.122Z,19.60
2022-12-01T07:24:13.979Z,20.93
2022-12-01T07:26:43.797Z,20.20
2022-12-01T07:29:11.195Z,19.33
2022-12-01T07:31:38.608Z,18.83
2022-12-01T07:34:05.821Z,20.10
2022-12-01T07:36:32.434Z,18.53
2022-12-01T07:38:58.809Z,19.93
2022-12-01T07:41:25.375Z,19.13
2022-12-01T07:43:51.784Z,20.27
2022-12-01T07:46:24.700Z,18.90
2022-12-01T07:48:52.704Z,19.57
2022-12-01T07:51:19.964Z,17.70
2022-12-01T07:53:49.124Z,19.93
2022-12-01T07:56:15.818Z,18.90
2022-12-01T07:58:42.866Z,19.77
2022-12-01T08:01:15.189Z,19.30
2022-12-01T08:03:42.231Z,18.27
2022-12-01T08:06:09.794Z,20.07
2022-12-01T08:08:38.524Z,20.37
2022-12-01T08:11:07.330Z,18.93
2022-12-01T08:13:33.938Z,19.40
2022-12-01T08:16:04.980Z,18.80
2022-12-01T08:18:34.093Z,20.50
2022-12-01T08:21:00.508Z,19.43
2022-12-01T08:23:26.863Z,18.53
2022-12-01T08:25:53.457Z,19.63
2022-12-01T08:28:20.621Z,19.73
2022-12-01T08:30:47.730Z,17.53
2022-12-01T08:33:14.210Z,19.50
2022-12-01T08:35:40.577Z,18.00
2022-12-01T08:38:06.922Z,17.53
2022-12-01T08:40:33.404Z,19.00
2022-12-01T08:43:00.035Z,17.77
2022-12-01T08:45:26.358Z,18.00
2022-12-01T08:47:58.546Z,17.90
2022-12-01T08:50:26.801Z,18.20
2022-12-01T08:52:53.377Z,17.63
2022-12-01T08:55:20.783Z,18.73
2022-12-01T08:57:47.384Z,19.00
2022-12-01T09:00:14.481Z,17.10
2022-12-01T09:02:40.855Z,20.23
2022-12-01T09:05:07.622Z,16.97
2022-12-01T09:07:34.015Z,17.30
2022-12-01T09:10:00.448Z,16.20
2022-12-01T09:12:28.896Z,17.10
2022-12-01T09:14:55.210Z,18.80
2022-12-01T09:17:21.645Z,18.30
2022-12-01T09:19:48.537Z,17.23
2022-12-01T09:22:15.072Z,15.97
2022-12-01T09:24:41.419Z,18.77
2022-12-01T09:27:09.476Z,17.20
2022-12-01T09:29:35.934Z,19.57
2022-12-01T09:32:02.267Z,20.03
2022-12-01T09:34:29.128Z,18.77
2022-12-01T09:36:57.543Z,17.97
2022-12-01T09:39:24.655Z,18.40
2022-12-01T09:42:07.685Z,19.20
2022-12-01T09:44:44.680Z,19.80
2022-12-01T09:47:18.870Z,18.30
2022-12-01T09:50:01.842Z,19.33
2022-12-01T09:52:33.469Z,17.67
2022-12-01T09:55:01.154Z,19.40
2022-12-01T09:57:38.306Z,18.80
2022-12-01T10:00:15.077Z,20.30
2022-12-01T10:03:10.689Z,20.27
2022-12-01T10:06:25.033Z,19.00
2022-12-01T10:08:44.148Z,18.50
2022-12-01T10:11:28.205Z,19.60
2022-12-01T10:13:54.588Z,18.53
2022-12-01T10:16:27.740Z,20.13
2022-12-01T10:18:59.962Z,18.63
2022-12-01T10:21:55.031Z,19.10
2022-12-01T10:24:59.115Z,19.37
2022-12-01T10:27:40.642Z,20.20
2022-12-01T10:30:15.512Z,19.73
2022-12-01T10:32:53.772Z,19.17
2022-12-01T10:35:36.905Z,21.07
2022-12-01T10:38:13.143Z,20.20
2022-12-01T10:40:42.617Z,20.13
2022-12-01T10:43:10.574Z,20.63
2022-12-01T10:45:44.086Z,19.80
2022-12-01T10:48:20.753Z,21.30
2022-12-01T10:50:50.428Z,20.87
2022-12-01T10:53:22.926Z,20.73
2022-12-01T10:56:16.913Z,20.83
2022-12-01T10:58:48.574Z,20.33
2022-12-01T11:01:20.038Z,19.93
2022-12-01T11:03:52.533Z,19.27
2022-12-01T11:06:22.791Z,21.53
2022-12-01T11:09:05.698Z,20.90
2022-12-01T11:11:40.482Z,22.30
2022-12-01T11:14:20.334Z,21.20
2022-12-01T11:16:48.901Z,22.17
2022-12-01T11:19:32.513Z,22.40
2022-12-01T11:22:01.316Z,21.00
2022-12-01T11:24:53.748Z,20.00
2022-12-01T11:27:23.154Z,19.40
2022-12-01T11:29:52.929Z,19.90
2022-12-01T11:32:26.171Z,21.33
2022-12-01T11:35:23.163Z,20.90
2022-12-01T11:38:27.903Z,19.70
2022-12-01T11:40:51.099Z,20.50
2022-12-01T11:43:26.477Z,19.80
2022-12-01T11:45:54.421Z,22.13
2022-12-01T11:48:20.815Z,55.70
2022-12-01T11:51:28.936Z,30.90
2022-12-01T11:54:12.599Z,25.30
2022-12-01T11:56:39.384Z,20.80
2022-12-01T11:59:13.883Z,23.80
2022-12-01T12:02:19.622Z,25.43
2022-12-01T12:04:53.100Z,21.53
2022-12-01T12:07:58.549Z,23.23
2022-12-01T12:10:39.243Z,22.03
2022-12-01T12:13:20.494Z,21.50
2022-12-01T12:16:10.369Z,20.80
2022-12-01T12:19:01.992Z,21.80
2022-12-01T12:21:42.056Z,20.30
2022-12-01T12:24:49.957Z,21.40
2022-12-01T12:27:41.706Z,20.77
2022-12-01T12:30:21.939Z,20.73
2022-12-01T12:33:00.414Z,21.27
2022-12-01T12:35:32.905Z,19.97
2022-12-01T12:38:23.814Z,21.40
2022-12-01T12:41:02.131Z,22.53
2022-12-01T12:43:49.974Z,21.87
2022-12-01T12:46:26.344Z,19.33
2022-12-01T12:49:25.183Z,22.10
2022-12-01T12:52:13.492Z,22.73
2022-12-01T12:54:57.501Z,20.97
2022-12-01T12:57:35.121Z,19.17
2022-12-01T13:00:13.089Z,19.07
2022-12-01T13:02:46.331Z,19.80
2022-12-01T13:05:25.167Z,22.63
2022-12-01T13:07:55.166Z,19.13
2022-12-01T13:10:47.259Z,18.20
2022-12-01T13:13:19.655Z,19.40
2022-12-01T13:15:49.121Z,19.73
2022-12-01T13:18:54.501Z,19.83
2022-12-01T13:21:22.605Z,18.70
2022-12-01T13:23:51.382Z,20.20
2022-12-01T13:26:20.585Z,18.30
2022-12-01T13:28:51.581Z,18.63
2022-12-01T13:31:20.038Z,19.00
2022-12-01T13:33:59.766Z,19.53
2022-12-01T13:39:20.168Z,19.27
2022-12-01T13:41:56.492Z,20.10
2022-12-01T13:44:26.216Z,18.13
2022-12-01T13:47:24.869Z,17.20
2022-12-01T13:49:52.853Z,17.63
2022-12-01T13:52:22.283Z,20.13
2022-12-01T13:55:10.697Z,17.23
2022-12-01T13:57:40.409Z,19.27
2022-12-01T14:00:27.191Z,19.37
2022-12-01T14:03:11.948Z,19.00
2022-12-01T14:05:53.711Z,19.60
2022-12-01T14:08:23.525Z,18.67
2022-12-01T14:11:06.957Z,17.10
2022-12-01T14:13:47.014Z,17.40
2022-12-01T14:16:13.545Z,16.83
2022-12-01T14:18:44.054Z,17.80
2022-12-01T14:21:12.540Z,17.40
2022-12-01T14:24:00.669Z,18.30
2022-12-01T14:26:29.303Z,16.10
2022-12-01T14:28:55.734Z,18.20
2022-12-01T14:31:23.574Z,16.70
2022-12-01T14:34:01.498Z,17.40
2022-12-01T14:36:36.121Z,16.63
2022-12-01T14:39:13.077Z,17.13
2022-12-01T14:41:51.018Z,17.40
2022-12-01T14:44:32.778Z,16.27
2022-12-01T14:47:13.225Z,16.97
2022-12-01T14:49:42.150Z,15.57
2022-12-01T14:52:36.431Z,17.67
2022-12-01T14:55:07.246Z,17.60
2022-12-01T14:57:39.634Z,17.00
2022-12-01T15:00:16.155Z,16.30
2022-12-01T15:02:48.382Z,17.90
2022-12-01T15:05:18.099Z,17.50
2022-12-01T15:07:48.645Z,18.20
2022-12-01T15:10:35.442Z,16.97
2022-12-01T15:13:30.606Z,16.70
2022-12-01T15:16:00.100Z,17.03
2022-12-01T15:18:32.439Z,18.87
2022-12-01T15:21:10.462Z,17.70
2022-12-01T15:23:37.269Z,16.60
2022-12-01T15:26:03.704Z,18.20
2022-12-01T15:28:35.419Z,15.40
2022-12-01T15:31:09.747Z,15.90
2022-12-01T15:33:38.903Z,15.77
2022-12-01T15:36:07.359Z,17.13
2022-12-01T15:38:37.105Z,16.40
2022-12-01T15:41:28.587Z,15.40
2022-12-01T15:43:58.505Z,15.20
2022-12-01T15:46:30.806Z,16.93
2022-12-01T15:49:08.571Z,17.03
2022-12-01T15:51:35.257Z,16.67
2022-12-01T15:54:02.622Z,15.20
2022-12-01T15:56:36.438Z,16.37
2022-12-01T15:59:09.363Z,16.87
2022-12-01T16:01:37.109Z,17.13
2022-12-01T16:04:17.169Z,18.60
2022-12-01T16:06:53.922Z,15.00
2022-12-01T16:09:27.853Z,16.57
2022-12-01T16:12:12.597Z,16.13
2022-12-01T16:14:53.380Z,15.87
2022-12-01T16:17:20.547Z,17.33
2022-12-01T16:19:46.898Z,16.87
2022-12-01T16:22:18.580Z,16.60
2022-12-01T16:24:54.524Z,15.73
2022-12-01T16:27:29.746Z,18.07
2022-12-01T16:30:02.540Z,16.53
2022-12-01T16:32:37.891Z,16.40
2022-12-01T16:35:05.740Z,15.83
2022-12-01T16:37:32.165Z,17.10
2022-12-01T16:39:58.705Z,16.70
2022-12-01T16:42:25.044Z,16.10
2022-12-01T16:44:52.372Z,16.63
2022-12-01T16:47:24.255Z,18.33
2022-12-01T16:49:51.847Z,17.10
2022-12-01T16:55:17.082Z,17.00
2022-12-01T16:57:43.604Z,16.30
2022-12-01T17:00:10.978Z,17.30
2022-12-01T17:02:37.330Z,17.07
2022-12-01T17:05:04.036Z,15.87
2022-12-01T17:07:30.403Z,18.43
2022-12-01T17:09:56.775Z,18.33
2022-12-01T17:12:26.227Z,18.43
2022-12-01T17:14:52.821Z,17.23
2022-12-01T17:17:19.227Z,17.57
2022-12-01T17:19:45.694Z,18.40
2022-12-01T17:22:12.010Z,18.57
2022-12-01T17:24:38.454Z,18.50
2022-12-01T17:27:04.891Z,18.40
2022-12-01T17:29:31.323Z,18.10
2022-12-01T17:31:57.658Z,17.50
2022-12-01T17:34:24.002Z,17.60
2022-12-01T17:36:51.594Z,18.53
2022-12-01T17:39:19.274Z,17.00
2022-12-01T17:41:45.739Z,19.73
2022-12-01T17:44:12.141Z,18.60
2022-12-01T17:46:38.804Z,18.17
2022-12-01T17:49:09.225Z,19.50
2022-12-01T17:51:36.670Z,19.93
2022-12-01T17:54:03.223Z,19.00
2022-12-01T17:56:29.536Z,19.77
2022-12-01T17:58:55.987Z,19.70
2022-12-01T18:01:26.920Z,18.50
2022-12-01T18:03:57.559Z,19.90
2022-12-01T18:06:25.427Z,19.07
2022-12-01T18:08:51.750Z,19.63
2022-12-01T18:11:18.126Z,18.80
2022-12-01T18:13:47.105Z,19.83
2022-12-01T18:16:28.899Z,19.30
2022-12-01T18:18:56.967Z,18.07
2022-12-01T18:21:24.901Z,17.87
2022-12-01T18:24:00.547Z,19.10
2022-12-01T18:26:28.330Z,19.50
2022-12-01T18:28:56.785Z,19.47
2022-12-01T18:31:23.324Z,20.40
2022-12-01T18:33:49.804Z,18.83
2022-12-01T18:36:19.356Z,19.13
2022-12-01T18:38:47.192Z,20.40
2022-12-01T18:41:14.729Z,19.50
2022-12-01T18:43:41.839Z,19.07
2022-12-01T18:46:08.643Z,19.00
2022-12-01T18:48:35.492Z,18.77
2022-12-01T18:51:06.570Z,18.73
2022-12-01T18:53:33.314Z,20.03
2022-12-01T18:56:11.680Z,19.97
2022-12-01T18:58:39.173Z,20.33
2022-12-01T19:01:21.515Z,19.27
2022-12-01T19:03:48.354Z,22.10
2022-12-01T19:06:15.158Z,19.30
2022-12-01T19:08:41.715Z,18.50
2022-12-01T19:11:08.621Z,19.27
2022-12-01T19:13:35.234Z,19.33
2022-12-01T19:16:20.241Z,20.23
2022-12-01T19:18:48.905Z,20.43
2022-12-01T19:21:17.423Z,19.77
2022-12-01T19:23:45.371Z,19.40
2022-12-01T19:26:15.169Z,18.73
2022-12-01T19:28:42.237Z,18.77
2022-12-01T19:31:11.498Z,20.50
2022-12-01T19:33:38.606Z,17.63
2022-12-01T19:36:17.287Z,18.00
2022-12-01T19:38:44.790Z,18.97
2022-12-01T19:41:12.882Z,16.17
2022-12-01T19:43:39.630Z,17.97
2022-12-01T19:46:17.836Z,16.67
2022-12-01T19:48:44.428Z,16.53
2022-12-01T19:51:19.899Z,19.70
2022-12-01T19:53:46.814Z,16.73
2022-12-01T19:56:13.323Z,17.97
2022-12-01T19:58:40.204Z,18.07
2022-12-01T20:01:09.477Z,17.03
2022-12-01T20:03:36.221Z,17.17
2022-12-01T20:06:23.994Z,17.43
2022-12-01T20:08:51.284Z,18.73
2022-12-01T20:11:18.330Z,16.67
2022-12-01T20:13:47.298Z,18.90
2022-12-01T20:16:13.663Z,16.33
2022-12-01T20:18:41.469Z,16.87
2022-12-01T20:21:09.410Z,19.10
2022-12-01T20:23:36.714Z,18.10
2022-12-01T20:26:06.204Z,18.40
2022-12-01T20:28:33.301Z,16.47
2022-12-01T20:31:13.128Z,16.47
2022-12-01T20:33:40.456Z,16.87
2022-12-01T20:36:07.827Z,16.73
2022-12-01T20:38:35.468Z,17.03
2022-12-01T20:41:02.206Z,16.57
2022-12-01T20:43:28.768Z,16.70
2022-12-01T20:45:55.451Z,18.00
2022-12-01T20:48:22.651Z,16.67
2022-12-01T20:50:49.029Z,18.30
2022-12-01T20:53:15.743Z,16.90
2022-12-01T20:55:42.552Z,18.60
2022-12-01T20:58:09.585Z,17.97
2022-12-01T21:00:38.350Z,17.20
2022-12-01T21:03:08.144Z,17.67
2022-12-01T21:05:48.374Z,18.37
2022-12-01T21:08:19.739Z,17.00
2022-12-01T21:10:52.372Z,19.13
2022-12-01T21:13:39.778Z,16.60
2022-12-01T21:16:16.464Z,16.47
2022-12-01T21:19:06.293Z,17.10
2022-12-01T21:21:37.874Z,17.03
2022-12-01T21:24:07.195Z,19.53
2022-12-01T21:26:47.775Z,23.97
2022-12-01T21:29:20.129Z,18.13
2022-12-01T21:31:49.536Z,22.20
2022-12-01T21:34:22.779Z,17.33
2022-12-01T21:36:52.299Z,17.33
2022-12-01T21:39:21.816Z,18.03
2022-12-01T21:41:50.060Z,17.73
2022-12-01T21:44:22.001Z,16.50
2022-12-01T21:46:56.312Z,16.20
2022-12-01T21:49:38.507Z,16.10
2022-12-01T21:52:22.942Z,17.60
2022-12-01T21:54:50.118Z,17.70
2022-12-01T21:57:43.322Z,18.30
2022-12-01T22:00:26.056Z,17.60
2022-12-01T22:03:12.347Z,17.70
2022-12-01T22:05:41.797Z,18.10
2022-12-01T22:08:16.895Z,16.27
2022-12-01T22:14:20.267Z,16.60
2022-12-01T22:16:56.693Z,15.37
2022-12-01T22:19:27.635Z,16.17
2022-12-01T22:22:25.239Z,16.70
2022-12-01T22:24:56.167Z,14.67
2022-12-01T22:27:27.939Z,16.20
2022-12-01T22:30:10.777Z,15.90
2022-12-01T22:32:56.576Z,16.77
2022-12-01T22:35:29.170Z,16.60
2022-12-01T22:38:09.189Z,17.57
2022-12-01T22:40:44.382Z,16.97
2022-12-01T22:43:19.953Z,14.50
2022-12-01T22:46:02.864Z,17.17
2022-12-01T22:49:01.030Z,16.40
2022-12-01T22:51:48.512Z,14.90
2022-12-01T22:54:14.817Z,15.80
2022-12-01T22:56:46.638Z,15.60
2022-12-01T22:59:24.994Z,15.43
2022-12-01T23:02:01.810Z,17.80
2022-12-01T23:05:01.673Z,16.80
2022-12-01T23:07:41.370Z,15.80
2022-12-01T23:10:15.370Z,14.50
2022-12-01T23:12:42.832Z,16.10
2022-12-01T23:15:20.065Z,16.57
2022-12-01T23:17:47.205Z,15.67
2022-12-01T23:20:19.735Z,16.33
2022-12-01T23:22:47.183Z,16.00
2022-12-01T23:25:18.878Z,14.60
2022-12-01T23:27:48.763Z,14.63
2022-12-01T23:30:19.726Z,13.83
2022-12-01T23:32:56.050Z,15.13
2022-12-01T23:35:22.482Z,15.60
2022-12-01T23:37:48.909Z,16.10
2022-12-01T23:40:26.126Z,15.93
2022-12-01T23:42:52.481Z,15.80
2022-12-01T23:45:25.877Z,17.20
2022-12-01T23:47:54.315Z,15.20
2022-12-01T23:50:26.059Z,16.90
2022-12-01T23:52:53.249Z,15.90
2022-12-01T23:55:22.910Z,16.20
2022-12-01T23:57:49.964Z,16.70
